Time;durP1;ratioP1;P1;durP2;ratioP2;P2;SDS_P1;SDS_P2;PMS_P1;PMS_P2;Temp;Humidity;BMP_temperature;BMP_pressure;BME280_temperature;BME280_humidity;BME280_pressure;Samples;Min_cycle;Max_cycle;Signal;HPM_P1;HPM_P2
2022/11/19 00:00:49;;;;;;;6.53;4.85;;;0.60;99.90;;;;;;5029714;28;20033;-74
2022/11/19 00:03:17;;;;;;;7.23;4.90;;;0.60;99.90;;;;;;5036422;28;20048;-74
2022/11/19 00:05:44;;;;;;;7.53;4.57;;;0.60;99.90;;;;;;5063862;28;20180;-74
2022/11/19 00:08:12;;;;;;;6.60;4.53;;;0.50;99.90;;;;;;5061258;28;20068;-73
2022/11/19 00:10:39;;;;;;;7.07;4.38;;;0.50;99.90;;;;;;5049484;28;20131;-74
2022/11/19 00:13:06;;;;;;;8.15;4.35;;;0.50;99.90;;;;;;5046624;28;20040;-73
2022/11/19 00:15:36;;;;;;;7.38;4.60;;;0.50;99.90;;;;;;5040027;28;20041;-73
2022/11/19 00:18:04;;;;;;;6.68;4.10;;;0.50;99.90;;;;;;5045338;28;20140;-74
2022/11/19 00:20:30;;;;;;;6.35;3.92;;;0.50;99.90;;;;;;5065255;28;20116;-73
2022/11/19 00:22:56;;;;;;;6.00;3.72;;;0.50;99.90;;;;;;5060426;28;20047;-73
2022/11/19 00:25:23;;;;;;;6.38;3.63;;;0.40;99.90;;;;;;5057680;28;20052;-73
2022/11/19 00:27:49;;;;;;;5.45;3.60;;;0.50;99.90;;;;;;5038352;28;20504;-73
2022/11/19 00:30:15;;;;;;;6.22;3.70;;;0.50;99.90;;;;;;5031981;28;20086;-74
2022/11/19 00:32:41;;;;;;;7.35;4.20;;;0.50;99.90;;;;;;5043910;28;20295;-73
2022/11/19 00:35:08;;;;;;;5.30;3.35;;;0.50;99.90;;;;;;5047751;28;20051;-73
2022/11/19 00:37:33;;;;;;;6.53;3.70;;;0.50;99.90;;;;;;5039518;28;20053;-74
2022/11/19 00:40:00;;;;;;;5.73;3.63;;;0.50;99.90;;;;;;5056507;28;20058;-73
2022/11/19 00:42:26;;;;;;;7.55;3.40;;;0.50;99.90;;;;;;5044288;28;20551;-73
2022/11/19 00:44:52;;;;;;;6.55;3.75;;;0.50;99.90;;;;;;5056724;28;20045;-73
2022/11/19 00:47:18;;;;;;;5.73;3.33;;;0.50;99.90;;;;;;5058744;28;20062;-73
2022/11/19 00:49:44;;;;;;;5.60;3.60;;;0.50;99.90;;;;;;5057875;28;20060;-74
2022/11/19 00:52:10;;;;;;;5.15;3.38;;;0.50;99.90;;;;;;5061652;28;20059;-73
2022/11/19 00:54:36;;;;;;;5.75;3.00;;;0.60;99.90;;;;;;5064059;28;20037;-73
2022/11/19 00:57:02;;;;;;;3.93;2.63;;;0.50;99.90;;;;;;5045540;28;20052;-73
2022/11/19 00:59:28;;;;;;;4.00;2.83;;;0.60;99.90;;;;;;5046355;28;20131;-73
2022/11/19 01:01:54;;;;;;;6.07;3.13;;;0.60;99.90;;;;;;5027904;28;20378;-73
2022/11/19 01:04:19;;;;;;;4.27;2.80;;;0.60;99.90;;;;;;5062962;28;20040;-73
2022/11/19 01:06:45;;;;;;;5.33;2.60;;;0.60;99.90;;;;;;5064161;28;20075;-73
2022/11/19 01:09:11;;;;;;;4.97;2.70;;;0.60;99.90;;;;;;5062128;28;20106;-73
2022/11/19 01:11:37;;;;;;;3.90;2.53;;;0.60;99.90;;;;;;5062166;28;20105;-73
2022/11/19 01:14:05;;;;;;;5.63;2.72;;;0.60;99.90;;;;;;5031622;28;20090;-73
2022/11/19 01:16:35;;;;;;;5.60;2.95;;;0.60;99.90;;;;;;5044523;28;20420;-73
2022/11/19 01:19:01;;;;;;;5.57;3.03;;;0.60;99.90;;;;;;5061753;28;20470;-73
2022/11/19 01:21:29;;;;;;;4.47;2.57;;;0.60;99.90;;;;;;5047398;28;20048;-73
2022/11/19 01:23:56;;;;;;;4.30;2.65;;;0.60;99.90;;;;;;5060875;28;20236;-73
2022/11/19 01:26:22;;;;;;;4.50;2.85;;;0.60;99.90;;;;;;5058396;28;20090;-73
2022/11/19 01:28:48;;;;;;;5.50;3.05;;;0.60;99.90;;;;;;5061651;28;20446;-73
2022/11/19 01:31:15;;;;;;;5.05;2.95;;;0.50;99.90;;;;;;5064078;28;20452;-73
2022/11/19 01:33:41;;;;;;;4.32;2.60;;;0.50;99.90;;;;;;5060982;28;20041;-73
2022/11/19 01:36:12;;;;;;;5.72;2.90;;;0.50;99.90;;;;;;5059973;28;20569;-73
2022/11/19 01:38:38;;;;;;;5.70;3.67;;;0.50;99.90;;;;;;5060223;28;20052;-73
2022/11/19 01:41:04;;;;;;;4.57;3.10;;;0.40;99.90;;;;;;5042587;28;20561;-74
2022/11/19 01:43:45;;;;;;;6.00;2.60;;;0.40;99.90;;;;;;5060322;28;20033;-73
2022/11/19 01:46:14;;;;;;;3.63;2.50;;;0.50;99.90;;;;;;5053963;28;20123;-73
2022/11/19 01:48:52;;;;;;;5.93;3.15;;;0.50;99.90;;;;;;5058514;28;20155;-73
2022/11/19 01:51:23;;;;;;;4.55;2.60;;;0.40;99.90;;;;;;5047705;28;20060;-73
2022/11/19 01:53:52;;;;;;;6.20;2.70;;;0.40;99.90;;;;;;5064190;28;20097;-73
2022/11/19 01:56:20;;;;;;;7.30;3.03;;;0.30;99.90;;;;;;5046717;28;20105;-74
2022/11/19 01:58:51;;;;;;;4.53;2.90;;;0.30;99.90;;;;;;5061480;28;20040;-73
2022/11/19 02:01:19;;;;;;;6.82;2.55;;;0.30;99.90;;;;;;5045171;28;20094;-73
2022/11/19 02:03:45;;;;;;;7.28;2.47;;;0.30;99.90;;;;;;5054562;28;20071;-73
2022/11/19 02:06:12;;;;;;;4.35;2.75;;;0.30;99.90;;;;;;5062343;28;20098;-73
2022/11/19 02:08:46;;;;;;;5.85;3.15;;;0.30;99.90;;;;;;5047150;28;20087;-73
2022/11/19 02:11:50;;;;;;;5.95;2.95;;;0.30;99.90;;;;;;5063858;28;20040;-73
2022/11/19 02:14:51;;;;;;;4.28;2.80;;;0.20;99.90;;;;;;5061484;28;20040;-73
2022/11/19 02:17:31;;;;;;;6.20;3.65;;;0.10;99.90;;;;;;5039019;28;20045;-73
2022/11/19 02:20:19;;;;;;;5.43;3.22;;;0.00;99.90;;;;;;5059458;28;20079;-73
2022/11/19 02:23:03;;;;;;;7.50;3.28;;;0.00;99.90;;;;;;5061588;28;20571;-73
2022/11/19 02:25:48;;;;;;;5.30;3.28;;;-0.10;99.90;;;;;;5059310;28;20037;-73
2022/11/19 02:28:16;;;;;;;5.97;3.60;;;-0.20;99.90;;;;;;5063335;28;20181;-73
2022/11/19 02:30:48;;;;;;;5.78;3.20;;;-0.20;99.90;;;;;;5043394;28;20573;-73
2022/11/19 02:33:40;;;;;;;7.35;3.67;;;-0.20;99.90;;;;;;5054673;28;20044;-73
2022/11/19 02:36:12;;;;;;;5.57;3.33;;;-0.30;99.90;;;;;;5058855;28;20047;-73
2022/11/19 02:38:40;;;;;;;6.65;3.53;;;-0.40;99.90;;;;;;5060033;28;20382;-74
2022/11/19 02:41:33;;;;;;;5.50;3.58;;;-0.40;99.90;;;;;;5058244;28;20485;-73
2022/11/19 02:46:56;;;;;;;4.88;3.35;;;-0.50;99.90;;;;;;5057850;28;20060;-73
2022/11/19 02:49:26;;;;;;;6.57;3.40;;;-0.50;99.90;;;;;;5054038;28;20070;-73
2022/11/19 02:51:53;;;;;;;5.85;3.47;;;-0.50;99.90;;;;;;5060354;28;20091;-73
2022/11/19 02:54:18;;;;;;;6.07;3.60;;;-0.60;99.90;;;;;;5043760;28;20043;-73
2022/11/19 02:56:44;;;;;;;6.40;3.43;;;-0.50;99.90;;;;;;5042998;28;20501;-73
2022/11/19 03:04:41;;;;;;;;;;;-0.60;99.90;;;;;;5059151;28;20048;-73
2022/11/19 03:07:15;;;;;;;5.03;3.30;;;-0.70;99.90;;;;;;5078135;28;19970;-73
2022/11/19 03:09:47;;;;;;;5.05;3.30;;;-0.70;99.90;;;;;;5062650;28;20464;-73
2022/11/19 03:12:29;;;;;;;6.22;3.30;;;-0.80;99.90;;;;;;5045125;28;20129;-73
2022/11/19 03:18:19;;;;;;;6.55;3.33;;;-0.90;99.90;;;;;;5064152;28;20048;-73
2022/11/19 03:21:07;;;;;;;5.97;3.10;;;-0.80;99.90;;;;;;5050574;28;20051;-73
2022/11/19 03:23:53;;;;;;;5.40;3.30;;;-0.80;99.90;;;;;;5058455;28;20036;-73
2022/11/19 03:26:33;;;;;;;;;;;-0.90;99.90;;;;;;5061074;28;20068;-73
2022/11/19 03:29:02;;;;;;;6.10;3.30;;;-0.90;99.90;;;;;;5060682;28;19963;-73
2022/11/19 03:31:30;;;;;;;6.15;3.55;;;-1.00;99.90;;;;;;5053527;28;20044;-73
2022/11/19 03:34:00;;;;;;;8.05;4.32;;;-1.00;99.90;;;;;;5065604;28;20118;-73
2022/11/19 03:36:40;;;;;;;7.45;3.20;;;-1.10;99.90;;;;;;5049336;28;20116;-74
2022/11/19 03:39:11;;;;;;;6.45;3.65;;;-1.10;99.90;;;;;;5051567;28;20045;-73
2022/11/19 03:41:40;;;;;;;6.85;3.60;;;-1.10;99.90;;;;;;5062737;28;20078;-73
2022/11/19 03:44:30;;;;;;;5.82;3.60;;;-1.10;99.90;;;;;;5066715;28;20052;-73
2022/11/19 03:47:15;;;;;;;5.25;3.03;;;-1.20;99.90;;;;;;5044905;28;20048;-73
2022/11/19 03:49:47;;;;;;;6.00;3.30;;;-1.20;99.90;;;;;;5056245;28;20460;-73
2022/11/19 03:52:16;;;;;;;6.18;3.42;;;-1.30;99.90;;;;;;5061500;28;20508;-73
2022/11/19 03:54:42;;;;;;;5.82;3.72;;;-1.20;99.90;;;;;;5047993;28;20149;-73
2022/11/19 03:57:11;;;;;;;5.80;3.20;;;-1.20;99.90;;;;;;5047632;28;20051;-73
2022/11/19 03:59:37;;;;;;;6.85;3.80;;;-1.20;99.90;;;;;;5056021;28;20489;-73
2022/11/19 04:02:07;;;;;;;5.77;3.40;;;-1.20;99.90;;;;;;5044843;28;20036;-73
2022/11/19 04:04:36;;;;;;;6.78;3.50;;;-1.20;99.90;;;;;;5057435;28;20055;-73
2022/11/19 04:07:11;;;;;;;6.40;3.25;;;-1.30;99.90;;;;;;5049010;28;20048;-73
2022/11/19 04:09:38;;;;;;;5.18;3.30;;;-1.30;99.90;;;;;;5061924;28;20078;-73
2022/11/19 04:12:05;;;;;;;6.07;3.35;;;-1.30;99.90;;;;;;5047145;28;20055;-73
2022/11/19 04:14:31;;;;;;;6.53;4.22;;;-1.30;99.90;;;;;;5063118;28;20568;-73
2022/11/19 04:16:57;;;;;;;6.10;3.40;;;-1.30;99.90;;;;;;5036723;28;20041;-73
2022/11/19 04:19:22;;;;;;;7.80;3.70;;;-1.40;99.90;;;;;;5045805;28;20045;-73
2022/11/19 04:21:49;;;;;;;6.40;3.83;;;-1.40;99.90;;;;;;5036828;28;20151;-73
2022/11/19 04:24:15;;;;;;;5.97;3.50;;;-1.40;99.90;;;;;;5063918;28;20283;-73
2022/11/19 04:26:41;;;;;;;7.13;3.70;;;-1.50;99.90;;;;;;5065000;28;20064;-73
2022/11/19 04:29:06;;;;;;;6.63;3.60;;;-1.40;99.90;;;;;;5030620;28;20279;-73
2022/11/19 04:31:32;;;;;;;6.73;4.07;;;-1.50;99.90;;;;;;5055206;28;20044;-73
2022/11/19 04:33:58;;;;;;;5.83;3.13;;;-1.50;99.90;;;;;;5046602;28;20044;-73
2022/11/19 04:36:24;;;;;;;6.27;3.43;;;-1.50;99.90;;;;;;5062692;28;20488;-73
2022/11/19 04:38:49;;;;;;;5.60;3.53;;;-1.60;99.90;;;;;;5033672;28;20048;-73
2022/11/19 04:41:15;;;;;;;7.73;4.10;;;-1.60;99.90;;;;;;5040279;28;20048;-73
2022/11/19 04:43:41;;;;;;;6.10;3.20;;;-1.50;99.90;;;;;;5026962;28;20173;-73
2022/11/19 04:46:06;;;;;;;5.57;3.27;;;-1.60;99.90;;;;;;5061542;28;20047;-73
2022/11/19 04:48:32;;;;;;;6.67;3.63;;;-1.60;99.90;;;;;;5035339;28;20033;-73
2022/11/19 04:50:58;;;;;;;7.60;3.90;;;-1.70;99.90;;;;;;5065118;28;20060;-73
2022/11/19 04:53:24;;;;;;;6.50;3.60;;;-1.70;99.90;;;;;;5043002;28;20065;-73
2022/11/19 04:55:49;;;;;;;7.57;3.50;;;-1.80;99.90;;;;;;5045632;28;20158;-73
2022/11/19 04:58:15;;;;;;;5.90;3.40;;;-1.70;99.90;;;;;;5043932;28;20144;-73
2022/11/19 05:00:41;;;;;;;7.80;4.37;;;-1.80;99.90;;;;;;5031193;28;20386;-73
2022/11/19 05:03:07;;;;;;;6.20;3.73;;;-1.80;99.90;;;;;;5047665;28;20400;-73
2022/11/19 05:05:32;;;;;;;6.73;3.77;;;-1.90;99.90;;;;;;5030941;28;20036;-73
2022/11/19 05:07:58;;;;;;;6.37;3.60;;;-1.90;99.90;;;;;;5046020;28;20067;-73
2022/11/19 05:10:24;;;;;;;6.90;3.77;;;-1.90;99.90;;;;;;5044916;28;20063;-73
2022/11/19 05:12:49;;;;;;;7.00;3.80;;;-1.90;99.90;;;;;;5044831;28;20045;-73
2022/11/19 05:15:15;;;;;;;8.30;4.53;;;-1.90;99.90;;;;;;5047429;28;20505;-73
2022/11/19 05:17:41;;;;;;;7.43;3.63;;;-1.80;99.90;;;;;;5044638;28;20056;-73
2022/11/19 05:20:08;;;;;;;7.53;3.10;;;-1.90;99.90;;;;;;5064230;28;20041;-73
2022/11/19 05:22:33;;;;;;;6.38;3.75;;;-1.90;99.90;;;;;;5041447;28;20041;-73
2022/11/19 05:24:59;;;;;;;5.93;3.13;;;-1.90;99.90;;;;;;5060591;28;20105;-73
2022/11/19 05:27:25;;;;;;;5.57;3.43;;;-1.90;99.90;;;;;;5030568;28;20109;-73
2022/11/19 05:29:50;;;;;;;5.83;3.30;;;-2.00;99.90;;;;;;5047808;28;20048;-73
2022/11/19 05:32:16;;;;;;;5.83;3.57;;;-2.00;99.90;;;;;;5044620;28;20048;-73
2022/11/19 05:34:42;;;;;;;5.53;3.27;;;-2.00;99.90;;;;;;5059281;28;20056;-73
2022/11/19 05:37:07;;;;;;;7.20;3.43;;;-2.00;99.90;;;;;;5045659;28;20128;-73
2022/11/19 05:39:33;;;;;;;6.83;3.47;;;-1.90;99.90;;;;;;5060282;28;20036;-73
2022/11/19 05:41:59;;;;;;;6.67;3.10;;;-2.00;99.90;;;;;;5047330;28;20043;-73
2022/11/19 05:44:24;;;;;;;6.43;3.53;;;-1.90;99.90;;;;;;5040292;28;20355;-73
2022/11/19 05:46:50;;;;;;;5.20;3.20;;;-1.90;99.90;;;;;;5020220;28;20041;-73
2022/11/19 05:49:16;;;;;;;6.73;4.33;;;-1.90;99.90;;;;;;5038161;28;20086;-73
2022/11/19 05:51:42;;;;;;;6.37;3.70;;;-1.90;99.90;;;;;;5060606;28;20053;-73
2022/11/19 05:54:07;;;;;;;6.13;3.33;;;-2.00;99.90;;;;;;5027582;28;20519;-73
2022/11/19 05:56:33;;;;;;;6.90;3.27;;;-2.00;99.90;;;;;;5046281;28;20097;-73
2022/11/19 05:58:59;;;;;;;6.40;3.93;;;-2.00;99.90;;;;;;5047043;28;20768;-73
2022/11/19 06:01:29;;;;;;;6.03;3.50;;;-2.00;99.90;;;;;;5046446;28;20111;-73
2022/11/19 06:03:54;;;;;;;5.72;3.60;;;-2.00;99.90;;;;;;5041300;28;20037;-73
2022/11/19 06:06:20;;;;;;;6.17;3.57;;;-2.10;99.90;;;;;;5054606;28;20040;-74
2022/11/19 06:08:47;;;;;;;5.20;3.38;;;-2.20;99.90;;;;;;5063862;28;20113;-73
2022/11/19 06:13:58;;;;;;;7.47;3.75;;;-2.10;99.90;;;;;;5061739;28;20115;-73
2022/11/19 06:16:24;;;;;;;6.78;3.90;;;-2.10;99.90;;;;;;5041488;28;20049;-73
2022/11/19 06:18:50;;;;;;;7.45;3.95;;;-2.20;99.90;;;;;;5061096;28;20040;-73
2022/11/19 06:21:16;;;;;;;8.43;4.40;;;-2.20;99.90;;;;;;5058221;28;20028;-73
2022/11/19 06:23:41;;;;;;;6.20;3.67;;;-2.20;99.90;;;;;;5027381;28;20072;-73
2022/11/19 06:26:08;;;;;;;6.80;4.00;;;-2.20;99.90;;;;;;5062204;28;20109;-73
2022/11/19 06:28:34;;;;;;;6.55;3.30;;;-2.20;99.90;;;;;;5063664;28;20048;-73
2022/11/19 06:31:00;;;;;;;7.35;3.95;;;-2.20;99.90;;;;;;5056245;28;20131;-73
2022/11/19 06:33:26;;;;;;;7.40;3.83;;;-2.20;99.90;;;;;;5062454;28;20127;-73
2022/11/19 06:35:52;;;;;;;6.93;4.27;;;-2.20;99.90;;;;;;5055030;28;20493;-73
2022/11/19 06:38:17;;;;;;;7.50;4.10;;;-2.20;99.90;;;;;;5046222;28;20074;-73
2022/11/19 06:40:46;;;;;;;8.67;4.60;;;-2.20;99.90;;;;;;5022212;28;20045;-73
2022/11/19 06:43:12;;;;;;;5.75;3.80;;;-2.30;99.90;;;;;;5046368;28;20094;-73
2022/11/19 06:45:38;;;;;;;6.77;3.30;;;-2.30;99.90;;;;;;5042512;28;20075;-73
2022/11/19 06:48:04;;;;;;;6.87;4.20;;;-2.30;99.90;;;;;;5021723;28;20104;-74
2022/11/19 06:50:30;;;;;;;7.53;4.40;;;-2.30;99.90;;;;;;5066709;28;20291;-73
2022/11/19 06:52:56;;;;;;;8.25;4.10;;;-2.30;99.90;;;;;;5043655;28;20059;-73
2022/11/19 06:55:22;;;;;;;6.50;3.83;;;-2.30;99.90;;;;;;5062061;28;20040;-73
2022/11/19 06:57:48;;;;;;;6.88;4.13;;;-2.40;99.90;;;;;;5063135;28;20651;-73
2022/11/19 07:00:14;;;;;;;7.40;4.10;;;-2.30;99.90;;;;;;5063174;28;20040;-73
2022/11/19 07:02:40;;;;;;;7.18;4.10;;;-2.30;99.90;;;;;;5058419;28;20885;-73
2022/11/19 07:05:07;;;;;;;9.67;4.10;;;-2.30;99.90;;;;;;5060803;28;20048;-73
2022/11/19 07:07:33;;;;;;;7.60;4.20;;;-2.40;99.90;;;;;;5031586;28;20051;-73
2022/11/19 07:09:59;;;;;;;8.05;4.60;;;-2.40;99.90;;;;;;5045101;28;20049;-73
2022/11/19 07:12:25;;;;;;;6.35;3.90;;;-2.30;99.90;;;;;;5048023;28;20067;-73
2022/11/19 07:14:51;;;;;;;6.80;3.80;;;-2.40;99.90;;;;;;5063436;28;20045;-73
2022/11/19 07:17:16;;;;;;;9.67;4.70;;;-2.40;99.90;;;;;;5064295;28;20349;-73
2022/11/19 07:19:42;;;;;;;7.23;4.10;;;-2.40;99.90;;;;;;5043880;28;20048;-73
2022/11/19 07:22:08;;;;;;;7.50;4.30;;;-2.50;99.90;;;;;;5063609;28;20404;-73
2022/11/19 07:24:34;;;;;;;8.38;4.40;;;-2.50;99.90;;;;;;5049493;28;20430;-73
2022/11/19 07:27:00;;;;;;;7.07;4.17;;;-2.50;99.90;;;;;;5047042;28;20040;-73
2022/11/19 07:29:26;;;;;;;8.93;5.00;;;-2.40;99.90;;;;;;5063603;28;20286;-73
2022/11/19 07:31:52;;;;;;;10.53;5.00;;;-2.50;99.90;;;;;;5046799;28;20044;-73
2022/11/19 07:34:18;;;;;;;8.52;4.82;;;-2.40;99.90;;;;;;5048933;28;20090;-73
2022/11/19 07:36:45;;;;;;;9.52;5.05;;;-2.40;99.90;;;;;;5046221;28;20568;-73
2022/11/19 07:39:11;;;;;;;7.00;4.38;;;-2.40;99.90;;;;;;5063138;28;20797;-74
2022/11/19 07:44:21;;;;;;;8.10;4.18;;;-2.30;99.90;;;;;;5065385;28;20056;-73
2022/11/19 07:46:47;;;;;;;6.70;3.83;;;-2.30;99.90;;;;;;5062723;28;20601;-74
2022/11/19 07:49:13;;;;;;;8.23;4.53;;;-2.30;99.90;;;;;;5036810;28;20094;-73
2022/11/19 07:51:39;;;;;;;7.90;4.93;;;-2.30;99.90;;;;;;5063754;28;20098;-72
2022/11/19 07:54:05;;;;;;;8.33;4.33;;;-2.30;99.90;;;;;;5049566;28;20314;-73
2022/11/19 07:56:31;;;;;;;6.57;4.18;;;-2.30;99.90;;;;;;5065455;28;20048;-73
2022/11/19 07:58:59;;;;;;;7.97;4.13;;;-2.30;99.90;;;;;;5045855;28;20047;-73
2022/11/19 08:01:25;;;;;;;8.88;4.70;;;-2.30;99.90;;;;;;5063068;28;20148;-73
2022/11/19 08:03:52;;;;;;;7.82;4.30;;;-2.20;99.90;;;;;;5078276;28;20048;-73
2022/11/19 08:06:19;;;;;;;7.82;4.32;;;-2.10;99.90;;;;;;5062356;28;20480;-73
2022/11/19 08:08:46;;;;;;;10.98;4.97;;;-2.10;99.90;;;;;;5048645;28;20076;-73
2022/11/19 08:11:13;;;;;;;9.13;4.90;;;-2.10;99.90;;;;;;5065897;28;20048;-73
2022/11/19 08:13:39;;;;;;;8.77;4.60;;;-2.10;99.90;;;;;;5062702;28;20563;-73
2022/11/19 08:16:07;;;;;;;7.73;4.60;;;-2.10;99.90;;;;;;5061283;28;20139;-73
2022/11/19 08:18:33;;;;;;;7.03;4.28;;;-1.90;99.90;;;;;;5062108;28;20040;-73
2022/11/19 08:21:08;;;;;;;7.25;4.28;;;-1.90;99.90;;;;;;5065306;28;20594;-73
2022/11/19 08:23:34;;;;;;;7.78;4.13;;;-1.90;99.90;;;;;;5053764;28;20036;-74
2022/11/19 08:26:00;;;;;;;7.93;4.75;;;-1.90;99.90;;;;;;5032002;28;20047;-73
2022/11/19 08:28:27;;;;;;;8.50;4.47;;;-1.80;99.90;;;;;;5065537;28;20048;-74
2022/11/19 08:30:53;;;;;;;7.20;4.60;;;-1.80;99.90;;;;;;5043765;28;20044;-73
2022/11/19 08:33:19;;;;;;;9.10;4.97;;;-1.70;99.90;;;;;;5057676;28;20106;-73
2022/11/19 08:35:45;;;;;;;7.27;4.50;;;-1.70;99.90;;;;;;5039729;28;20032;-73
2022/11/19 08:38:10;;;;;;;7.13;3.80;;;-1.70;99.90;;;;;;5065796;28;20282;-73
2022/11/19 08:40:36;;;;;;;7.50;4.67;;;-1.60;99.90;;;;;;5040015;28;20114;-73
2022/11/19 08:43:03;;;;;;;10.52;4.60;;;-1.60;99.90;;;;;;5040852;28;20280;-72
2022/11/19 08:45:31;;;;;;;6.15;4.30;;;-1.50;99.90;;;;;;5056231;28;20550;-73
2022/11/19 08:47:59;;;;;;;7.57;4.78;;;-1.50;99.90;;;;;;5034898;28;20045;-73
2022/11/19 08:50:25;;;;;;;9.05;4.95;;;-1.40;99.90;;;;;;5078424;28;20052;-73
2022/11/19 08:52:56;;;;;;;7.22;4.47;;;-1.30;99.90;;;;;;5045388;28;20107;-73
2022/11/19 08:55:22;;;;;;;8.05;4.88;;;-1.30;99.90;;;;;;5059729;28;20569;-73
2022/11/19 08:57:48;;;;;;;9.52;5.57;;;-1.20;99.90;;;;;;5065385;28;20055;-72
2022/11/19 09:00:14;;;;;;;11.00;5.47;;;-1.10;99.90;;;;;;5062396;28;20033;-72
2022/11/19 09:02:40;;;;;;;11.13;4.97;;;-1.10;99.90;;;;;;5047948;28;20040;-72
2022/11/19 09:05:06;;;;;;;7.60;5.00;;;-1.00;99.90;;;;;;5062667;28;20042;-73
2022/11/19 09:07:32;;;;;;;8.25;4.93;;;-1.00;99.90;;;;;;5046734;28;20055;-73
2022/11/19 09:09:58;;;;;;;8.33;4.80;;;-0.90;99.90;;;;;;5031908;28;20450;-73
2022/11/19 09:12:23;;;;;;;7.73;5.03;;;-0.90;99.90;;;;;;5064769;28;20040;-73
2022/11/19 09:14:49;;;;;;;9.03;5.30;;;-0.90;99.90;;;;;;5064187;28;20089;-72
2022/11/19 09:17:15;;;;;;;10.00;5.47;;;-0.80;99.90;;;;;;5063283;28;20609;-73
2022/11/19 09:19:41;;;;;;;8.85;5.22;;;-0.80;99.90;;;;;;5059182;28;20155;-73
2022/11/19 09:22:07;;;;;;;7.93;5.20;;;-0.70;99.90;;;;;;5064662;28;20449;-73
2022/11/19 09:24:32;;;;;;;9.20;5.47;;;-0.70;99.90;;;;;;5030899;28;20044;-73
2022/11/19 09:26:58;;;;;;;9.10;5.20;;;-0.70;99.90;;;;;;5026211;28;20079;-72
2022/11/19 09:29:24;;;;;;;8.40;5.07;;;-0.60;99.90;;;;;;5035475;28;20052;-72
2022/11/19 09:31:49;;;;;;;8.10;5.23;;;-0.70;99.90;;;;;;5051494;28;20040;-73
2022/11/19 09:34:15;;;;;;;9.53;5.57;;;-0.60;99.90;;;;;;5059707;28;20044;-73
2022/11/19 09:36:41;;;;;;;8.43;5.20;;;-0.60;99.90;;;;;;5060674;28;20530;-74
2022/11/19 09:39:06;;;;;;;8.57;5.30;;;-0.60;99.90;;;;;;5060026;28;20048;-73
2022/11/19 09:41:42;;;;;;;8.47;6.37;;;-0.50;99.90;;;;;;5047793;28;20040;-73
2022/11/19 09:44:17;;;;;;;8.48;5.18;;;-0.40;98.50;;;;;;5043284;28;20247;-73
2022/11/19 09:46:51;;;;;;;8.68;5.13;;;-0.40;99.30;;;;;;5060663;28;20059;-74
2022/11/19 09:49:58;;;;;;;8.82;5.13;;;-0.30;99.60;;;;;;5033855;28;20040;-74
2022/11/19 09:52:27;;;;;;;7.15;4.57;;;-0.30;97.40;;;;;;5039835;28;20107;-74
2022/11/19 09:54:55;;;;;;;7.35;4.72;;;-0.20;99.90;;;;;;5053027;28;20047;-74
2022/11/19 09:57:35;;;;;;;8.38;5.00;;;-0.20;99.40;;;;;;5039015;28;20551;-74
2022/11/19 10:00:05;;;;;;;8.82;4.57;;;-0.10;98.30;;;;;;5045896;28;20365;-73
2022/11/19 10:02:33;;;;;;;9.52;5.75;;;-0.10;99.00;;;;;;5045853;28;20392;-73
2022/11/19 10:04:58;;;;;;;8.43;4.88;;;0.00;97.00;;;;;;5066474;28;20387;-73
2022/11/19 10:07:39;;;;;;;8.17;5.07;;;0.00;97.30;;;;;;5056281;28;20071;-73
2022/11/19 10:10:17;;;;;;;8.20;4.72;;;0.10;93.10;;;;;;5059542;28;20040;-73
2022/11/19 10:13:10;;;;;;;7.80;4.82;;;0.20;95.60;;;;;;5034547;28;20037;-73
2022/11/19 10:15:51;;;;;;;7.82;4.45;;;0.20;95.00;;;;;;5051414;28;20041;-73
2022/11/19 10:18:30;;;;;;;8.38;4.68;;;0.20;97.40;;;;;;5059465;28;20039;-73
2022/11/19 10:21:01;;;;;;;7.85;4.63;;;0.30;96.20;;;;;;5060705;28;20056;-73
2022/11/19 10:23:33;;;;;;;7.85;5.13;;;0.30;94.70;;;;;;5043679;28;20032;-73
2022/11/19 10:26:13;;;;;;;9.43;5.15;;;0.30;95.90;;;;;;5058172;28;20044;-73
2022/11/19 10:28:41;;;;;;;8.80;5.18;;;0.50;95.50;;;;;;5053924;28;20041;-73
2022/11/19 10:31:11;;;;;;;10.15;5.20;;;0.40;93.90;;;;;;5040082;28;20108;-73
2022/11/19 10:33:55;;;;;;;6.90;5.43;;;0.50;93.20;;;;;;5046381;28;20043;-73
2022/11/19 10:36:27;;;;;;;8.00;4.68;;;0.50;92.30;;;;;;5045178;28;20049;-73
2022/11/19 10:39:06;;;;;;;6.80;4.60;;;0.60;90.60;;;;;;5044313;28;20040;-73
2022/11/19 10:41:52;;;;;;;7.10;4.65;;;0.60;94.90;;;;;;5040658;28;20067;-73
2022/11/19 10:47:19;;;;;;;6.75;4.22;;;0.70;93.40;;;;;;5051096;28;20330;-73
2022/11/19 10:49:50;;;;;;;6.88;4.30;;;0.80;95.60;;;;;;5063981;28;20464;-73
2022/11/19 10:52:29;;;;;;;8.40;5.15;;;0.80;93.90;;;;;;5044673;28;20057;-73
2022/11/19 10:55:01;;;;;;;7.93;5.05;;;0.90;94.60;;;;;;5031564;28;20098;-73
2022/11/19 10:57:30;;;;;;;7.28;4.50;;;0.90;94.30;;;;;;5053317;28;20051;-73
2022/11/19 10:59:56;;;;;;;6.68;4.65;;;1.00;94.90;;;;;;5048668;28;20041;-73
2022/11/19 11:02:46;;;;;;;8.35;4.38;;;1.00;94.80;;;;;;5050355;28;20097;-73
2022/11/19 11:05:15;;;;;;;6.65;4.30;;;1.10;95.90;;;;;;5044794;28;20049;-73
2022/11/19 11:08:10;;;;;;;8.13;4.32;;;1.10;95.10;;;;;;5046976;28;20041;-73
2022/11/19 11:10:44;;;;;;;7.18;4.63;;;1.20;93.20;;;;;;5042691;28;20127;-73
2022/11/19 11:16:10;;;;;;;5.95;3.95;;;1.20;93.90;;;;;;5062628;28;20040;-73
2022/11/19 11:18:39;;;;;;;5.45;3.80;;;1.30;92.60;;;;;;5064476;28;20401;-74
2022/11/19 11:21:09;;;;;;;6.82;4.32;;;1.40;95.00;;;;;;5062847;28;20040;-73
2022/11/19 11:23:52;;;;;;;7.45;4.63;;;1.40;93.10;;;;;;5054595;28;20122;-73
2022/11/19 11:26:22;;;;;;;6.32;4.28;;;1.40;92.60;;;;;;5062621;28;20040;-73
2022/11/19 11:28:58;;;;;;;7.32;4.32;;;1.50;92.30;;;;;;5063569;28;20048;-74
2022/11/19 11:31:43;;;;;;;6.75;4.63;;;1.50;91.00;;;;;;5063327;28;20420;-74
2022/11/19 11:34:29;;;;;;;6.93;3.67;;;1.50;92.90;;;;;;5050567;28;20055;-74
2022/11/19 11:36:56;;;;;;;6.32;4.40;;;1.70;91.20;;;;;;5050293;28;20041;-74
2022/11/19 11:39:37;;;;;;;7.03;4.47;;;1.60;89.70;;;;;;5065946;28;20043;-73
2022/11/19 11:42:03;;;;;;;6.70;4.45;;;1.70;92.00;;;;;;5066460;28;20047;-74
2022/11/19 11:44:37;;;;;;;5.68;4.15;;;1.70;91.80;;;;;;5054540;28;20051;-74
2022/11/19 11:47:15;;;;;;;7.88;4.60;;;1.80;93.50;;;;;;5062793;28;20492;-74
2022/11/19 11:49:44;;;;;;;6.60;4.20;;;1.90;93.60;;;;;;5047036;28;20044;-73
2022/11/19 11:52:29;;;;;;;5.50;3.83;;;1.90;91.50;;;;;;5054298;28;20056;-73
2022/11/19 11:54:58;;;;;;;6.82;4.03;;;2.00;92.30;;;;;;5061610;28;20124;-74
2022/11/19 11:57:33;;;;;;;6.70;3.92;;;2.00;89.00;;;;;;5059616;28;20144;-73
2022/11/19 12:00:00;;;;;;;5.57;4.25;;;2.00;92.00;;;;;;5039945;28;20700;-73
2022/11/19 12:02:29;;;;;;;5.97;3.92;;;2.10;90.30;;;;;;5057328;28;20040;-73
2022/11/19 12:04:58;;;;;;;7.07;5.35;;;2.10;91.90;;;;;;5039890;28;20071;-74
2022/11/19 12:07:36;;;;;;;5.90;3.63;;;2.10;89.20;;;;;;5057682;28;20496;-74
2022/11/19 12:10:25;;;;;;;7.32;4.05;;;2.10;89.20;;;;;;5058345;28;20102;-74
2022/11/19 12:13:40;;;;;;;6.03;4.05;;;2.20;92.50;;;;;;5051559;28;20190;-74
2022/11/19 12:16:37;;;;;;;5.78;3.65;;;2.20;91.60;;;;;;5035702;28;20060;-74
2022/11/19 12:19:21;;;;;;;5.05;3.40;;;2.20;88.60;;;;;;5047712;28;20123;-74
2022/11/19 12:22:21;;;;;;;4.35;3.08;;;2.20;90.40;;;;;;5066763;28;20075;-74
2022/11/19 12:25:17;;;;;;;5.55;3.50;;;2.30;90.30;;;;;;5043932;28;20571;-74
2022/11/19 12:27:54;;;;;;;5.18;3.33;;;2.30;90.00;;;;;;5066315;28;20040;-73
2022/11/19 12:30:23;;;;;;;5.00;3.30;;;2.30;90.70;;;;;;5057673;28;20040;-74
2022/11/19 12:32:51;;;;;;;5.30;3.40;;;2.30;87.30;;;;;;5051074;28;20072;-74
2022/11/19 12:35:45;;;;;;;6.38;3.45;;;2.30;88.50;;;;;;5059118;28;20045;-73
2022/11/19 12:38:14;;;;;;;5.38;3.22;;;2.30;91.40;;;;;;5061053;28;20036;-73
2022/11/19 12:41:01;;;;;;;7.43;3.85;;;2.20;93.20;;;;;;5066065;28;20568;-73
2022/11/19 12:43:55;;;;;;;7.47;4.05;;;2.20;93.30;;;;;;5065765;28;20432;-74
2022/11/19 12:46:39;;;;;;;6.70;4.20;;;2.30;93.30;;;;;;5046530;28;20390;-75
2022/11/19 12:49:28;;;;;;;6.38;3.53;;;2.30;93.20;;;;;;5046138;28;20079;-74
2022/11/19 12:52:07;;;;;;;5.28;3.28;;;2.30;92.70;;;;;;5051869;28;20056;-73
2022/11/19 12:55:03;;;;;;;6.80;3.63;;;2.30;93.30;;;;;;5058486;28;20057;-73
2022/11/19 12:57:31;;;;;;;5.88;3.28;;;2.30;91.80;;;;;;5063080;28;20036;-73
2022/11/19 13:00:18;;;;;;;6.43;3.97;;;2.30;93.90;;;;;;5047354;28;20036;-73
2022/11/19 13:02:47;;;;;;;7.80;4.18;;;2.30;94.50;;;;;;5044923;28;20040;-73
2022/11/19 13:05:18;;;;;;;5.57;4.07;;;2.30;94.80;;;;;;5047794;28;20048;-72
2022/11/19 13:08:11;;;;;;;5.97;3.70;;;2.20;92.20;;;;;;5040034;28;20439;-72
2022/11/19 13:10:47;;;;;;;5.30;3.25;;;2.20;94.60;;;;;;5045776;28;20056;-73
2022/11/19 13:13:17;;;;;;;5.57;3.70;;;2.20;96.20;;;;;;5043476;28;20051;-72
2022/11/19 13:15:56;;;;;;;5.82;3.55;;;2.20;96.50;;;;;;5061495;28;20136;-72
2022/11/19 13:18:24;;;;;;;5.65;3.40;;;2.30;94.30;;;;;;5063117;28;20095;-73
2022/11/19 13:21:00;;;;;;;6.75;3.50;;;2.30;94.40;;;;;;5054462;28;20076;-72
2022/11/19 13:23:31;;;;;;;5.43;3.40;;;2.30;93.20;;;;;;5059580;28;20099;-73
2022/11/19 13:26:03;;;;;;;5.78;3.70;;;2.30;94.50;;;;;;5060654;28;20409;-73
2022/11/19 13:28:46;;;;;;;5.55;3.80;;;2.30;95.40;;;;;;5057888;28;20110;-73
2022/11/19 13:31:37;;;;;;;6.55;3.13;;;2.20;96.10;;;;;;5052732;28;20504;-73